createdAt,value
2023-03-05T00:03:25.164Z,2.07
2023-03-05T00:07:26.605Z,1.92
2023-03-05T00:11:30.118Z,1.71
2023-03-05T00:15:31.695Z,1.80
2023-03-05T00:19:33.146Z,1.80
2023-03-05T00:23:34.589Z,1.56
2023-03-05T00:27:35.997Z,1.47
2023-03-05T00:31:37.990Z,1.42
2023-03-05T00:35:41.383Z,1.54
2023-03-05T00:39:42.882Z,1.46
2023-03-05T00:43:44.329Z,1.39
2023-03-05T00:47:45.753Z,1.25
2023-03-05T00:51:47.249Z,1.29
2023-03-05T00:55:48.861Z,1.37
2023-03-05T00:59:50.328Z,1.48
2023-03-05T01:03:52.040Z,1.40
2023-03-05T01:07:54.470Z,1.54
2023-03-05T01:11:56.302Z,1.46
2023-03-05T01:15:57.785Z,1.60
2023-03-05T01:19:59.283Z,1.32
2023-03-05T01:24:00.737Z,1.37
2023-03-05T01:28:02.173Z,1.45
2023-03-05T01:32:03.728Z,1.58
2023-03-05T01:36:14.810Z,1.41
2023-03-05T01:40:19.770Z,1.50
2023-03-05T01:44:27.471Z,1.40
2023-03-05T01:48:28.999Z,1.42
2023-03-05T01:52:33.972Z,1.22
2023-03-05T01:56:36.670Z,1.16
2023-03-05T02:00:43.910Z,1.20
2023-03-05T02:04:50.850Z,1.12
2023-03-05T02:08:52.414Z,0.94
2023-03-05T02:12:58.514Z,1.07
2023-03-05T02:17:00.300Z,0.90
2023-03-05T02:21:06.575Z,1.08
2023-03-05T02:25:17.155Z,0.89
2023-03-05T02:29:19.937Z,0.89
2023-03-05T02:33:22.593Z,0.90
2023-03-05T02:37:24.026Z,0.93
2023-03-05T02:41:26.732Z,0.87
2023-03-05T02:45:28.414Z,0.83
2023-03-05T02:49:30.013Z,0.92
2023-03-05T02:53:31.436Z,0.93
2023-03-05T02:57:32.864Z,0.62
2023-03-05T03:01:34.536Z,0.85
2023-03-05T03:05:36.866Z,0.81
2023-03-05T03:09:38.952Z,0.76
2023-03-05T03:13:41.171Z,0.68
2023-03-05T03:17:42.619Z,0.72
2023-03-05T03:21:44.055Z,0.83
2023-03-05T03:25:45.489Z,0.74
2023-03-05T03:29:46.919Z,0.71
2023-03-05T03:33:48.388Z,0.65
2023-03-05T03:37:49.850Z,0.71
2023-03-05T03:41:53.213Z,0.53
2023-03-05T03:45:54.710Z,0.62
2023-03-05T03:49:56.687Z,0.58
2023-03-05T03:53:58.598Z,0.49
2023-03-05T03:58:00.249Z,0.54
2023-03-05T04:02:01.754Z,0.54
2023-03-05T04:06:04.432Z,0.48
2023-03-05T04:10:06.329Z,0.43
2023-03-05T04:14:07.774Z,0.39
2023-03-05T04:18:10.424Z,0.36
2023-03-05T04:22:14.360Z,0.35
2023-03-05T04:26:15.760Z,0.45
2023-03-05T04:30:17.640Z,0.49
2023-03-05T04:34:19.116Z,0.37
2023-03-05T04:38:20.604Z,0.12
2023-03-05T04:42:22.126Z,0.26
2023-03-05T04:46:23.559Z,0.20
2023-03-05T04:50:25.903Z,0.36
2023-03-05T04:54:28.109Z,0.50
2023-03-05T04:58:29.550Z,0.25
2023-03-05T05:02:31.025Z,0.42
2023-03-05T05:06:32.496Z,0.37
2023-03-05T05:10:33.930Z,0.26
2023-03-05T05:14:35.397Z,0.25
2023-03-05T05:18:36.858Z,0.12
2023-03-05T05:22:38.512Z,0.20
2023-03-05T05:26:41.097Z,0.24
2023-03-05T05:30:42.504Z,0.16
2023-03-05T05:34:43.943Z,0.24
2023-03-05T05:38:45.867Z,0.10
2023-03-05T05:42:47.305Z,0.13
2023-03-05T05:46:48.868Z,0.23
2023-03-05T05:50:50.292Z,0.25
2023-03-05T05:54:51.811Z,0.39
2023-03-05T05:58:53.925Z,0.30
2023-03-05T06:02:55.372Z,0.35
2023-03-05T06:06:58.267Z,0.29
2023-03-05T06:10:59.654Z,0.48
2023-03-05T06:15:01.136Z,0.58
2023-03-05T06:19:04.583Z,0.44
2023-03-05T06:23:07.142Z,0.74
2023-03-05T06:27:08.595Z,0.59
2023-03-05T06:31:13.521Z,0.58
2023-03-05T06:35:15.048Z,0.64
2023-03-05T06:39:16.483Z,0.62
2023-03-05T06:43:18.196Z,0.69
2023-03-05T06:47:19.660Z,0.59
2023-03-05T06:51:24.786Z,0.58
2023-03-05T06:55:26.264Z,0.56
2023-03-05T06:59:28.073Z,0.52
2023-03-05T07:03:29.523Z,0.78
2023-03-05T07:07:31.104Z,0.76
2023-03-05T07:11:34.100Z,0.65
2023-03-05T07:15:38.883Z,0.89
2023-03-05T07:19:40.741Z,1.02
2023-03-05T07:23:42.189Z,0.95
2023-03-05T07:27:43.604Z,1.08
2023-03-05T07:31:45.014Z,1.08
2023-03-05T07:35:46.465Z,1.01
2023-03-05T07:39:48.025Z,1.20
2023-03-05T07:43:52.849Z,0.98
2023-03-05T07:47:56.055Z,1.17
2023-03-05T07:51:57.488Z,1.22
2023-03-05T07:55:58.951Z,1.39
2023-03-05T08:00:00.346Z,1.32
2023-03-05T08:04:03.712Z,1.45
2023-03-05T08:08:05.525Z,1.57
2023-03-05T08:12:07.454Z,2.17
2023-03-05T08:16:12.440Z,2.08
2023-03-05T08:20:14.015Z,2.03
2023-03-05T08:24:15.560Z,2.88
2023-03-05T08:28:19.602Z,2.00
2023-03-05T08:32:21.339Z,2.68
2023-03-05T08:36:22.797Z,2.42
2023-03-05T08:40:24.345Z,2.00
2023-03-05T08:44:25.835Z,2.30
2023-03-05T08:48:27.792Z,2.66
2023-03-05T08:52:29.354Z,2.56
2023-03-05T08:56:31.416Z,2.66
2023-03-05T09:00:33.015Z,2.60
2023-03-05T09:04:34.452Z,1.99
2023-03-05T09:08:36.301Z,2.38
2023-03-05T09:12:37.849Z,2.82
2023-03-05T09:16:40.939Z,3.11
2023-03-05T09:20:42.479Z,3.16
2023-03-05T09:24:44.103Z,2.92
2023-03-05T09:28:45.867Z,2.89
2023-03-05T09:32:47.429Z,2.55
2023-03-05T09:36:48.917Z,2.62
2023-03-05T09:45:41.978Z,3.07
2023-03-05T09:49:54.316Z,2.99
2023-03-05T09:54:10.828Z,2.74
2023-03-05T09:58:18.821Z,3.09
2023-03-05T10:02:33.958Z,3.18
2023-03-05T10:06:41.766Z,3.24
2023-03-05T10:10:54.104Z,3.07
2023-03-05T10:14:56.090Z,2.97
2023-03-05T10:19:29.999Z,3.29
2023-03-05T10:23:34.156Z,2.91
2023-03-05T10:27:54.182Z,3.07
2023-03-05T10:32:36.337Z,3.00
2023-03-05T10:36:47.278Z,3.48
2023-03-05T10:40:52.774Z,3.86
2023-03-05T10:44:59.720Z,4.34
2023-03-05T10:49:26.760Z,4.35
2023-03-05T10:53:35.066Z,3.67
2023-03-05T10:57:36.505Z,3.87
2023-03-05T11:01:38.228Z,3.63
2023-03-05T11:05:58.795Z,3.56
2023-03-05T11:10:00.227Z,3.74
2023-03-05T11:14:03.868Z,3.87
2023-03-05T11:18:07.482Z,3.85
2023-03-05T11:22:16.360Z,3.57
2023-03-05T11:26:23.187Z,3.50
2023-03-05T11:30:34.558Z,3.49
2023-03-05T11:34:36.158Z,3.36
2023-03-05T11:39:07.532Z,3.16
2023-03-05T11:43:16.079Z,2.88
2023-03-05T11:47:44.747Z,3.06
2023-03-05T11:51:57.793Z,3.46
2023-03-05T11:56:05.317Z,3.78
2023-03-05T12:00:12.254Z,3.14
2023-03-05T12:04:14.640Z,2.97
2023-03-05T12:08:22.950Z,2.91
2023-03-05T12:12:51.466Z,2.86
2023-03-05T12:17:10.205Z,2.87
2023-03-05T12:21:29.944Z,3.91
2023-03-05T12:25:34.957Z,5.06
2023-03-05T12:29:51.737Z,5.74
2023-03-05T12:33:53.240Z,5.12
2023-03-05T12:37:54.711Z,4.09
2023-03-05T12:41:56.555Z,3.64
2023-03-05T12:46:29.377Z,3.73
2023-03-05T12:50:32.802Z,3.76
2023-03-05T12:54:42.041Z,3.83
2023-03-05T12:58:51.265Z,3.83
2023-03-05T13:02:58.683Z,3.23
2023-03-05T13:07:06.038Z,3.10
2023-03-05T13:11:16.822Z,2.22
2023-03-05T13:15:18.664Z,2.49
2023-03-05T13:19:21.481Z,2.51
2023-03-05T13:23:28.527Z,2.86
2023-03-05T13:27:32.499Z,2.98
2023-03-05T13:31:36.624Z,2.68
2023-03-05T13:35:46.348Z,2.69
2023-03-05T13:39:52.130Z,2.72
2023-03-05T13:43:55.168Z,2.50
2023-03-05T13:47:59.233Z,2.81
2023-03-05T13:52:00.838Z,2.69
2023-03-05T13:56:05.618Z,2.63
2023-03-05T14:00:27.019Z,2.45
2023-03-05T14:04:32.343Z,2.67
2023-03-05T14:08:33.914Z,2.25
2023-03-05T14:12:40.882Z,2.32
2023-03-05T14:16:42.512Z,2.74
2023-03-05T14:21:08.871Z,2.79
2023-03-05T14:25:39.415Z,2.75
2023-03-05T14:29:46.532Z,2.63
2023-03-05T14:33:48.900Z,2.55
2023-03-05T14:37:53.193Z,2.89
2023-03-05T14:41:54.701Z,2.59
2023-03-05T14:45:56.342Z,2.37
2023-03-05T14:49:57.905Z,2.34
2023-03-05T14:53:59.433Z,2.37
2023-03-05T14:58:04.684Z,1.76
2023-03-05T15:02:30.446Z,2.58
2023-03-05T15:06:39.502Z,2.44
2023-03-05T15:10:41.407Z,2.32
2023-03-05T15:14:43.536Z,1.96
2023-03-05T15:18:46.292Z,2.15
2023-03-05T15:22:47.790Z,2.09
2023-03-05T15:26:50.271Z,1.95
2023-03-05T15:30:51.839Z,2.05
2023-03-05T15:34:55.954Z,2.16
2023-03-05T15:38:57.480Z,2.19
2023-03-05T15:43:00.421Z,1.70
2023-03-05T15:47:02.059Z,1.66
2023-03-05T15:51:07.093Z,1.59
2023-03-05T15:55:09.524Z,1.96
2023-03-05T15:59:13.336Z,1.69
2023-03-05T16:03:17.630Z,1.86
2023-03-05T16:07:19.822Z,2.16
2023-03-05T16:11:25.721Z,1.82
2023-03-05T16:15:27.408Z,2.15
2023-03-05T16:19:30.463Z,1.91
2023-03-05T16:23:32.048Z,2.04
2023-03-05T16:27:33.997Z,1.97
2023-03-05T16:31:39.155Z,1.64
2023-03-05T16:35:40.786Z,1.53
2023-03-05T16:39:42.722Z,1.85
2023-03-05T16:43:45.052Z,1.79
2023-03-05T16:47:46.531Z,1.45
2023-03-05T16:51:48.604Z,1.67
2023-03-05T16:55:50.849Z,1.64
2023-03-05T16:59:57.406Z,1.65
2023-03-05T17:03:59.861Z,1.27
2023-03-05T17:08:04.082Z,1.49
2023-03-05T17:12:05.737Z,1.13
2023-03-05T17:16:09.062Z,1.22
2023-03-05T17:20:11.092Z,1.28
2023-03-05T17:24:12.637Z,1.07
2023-03-05T17:28:14.813Z,1.43
2023-03-05T17:32:16.533Z,0.98
2023-03-05T17:36:22.131Z,0.78
2023-03-05T17:40:24.979Z,0.43
2023-03-05T17:44:26.523Z,0.74
2023-03-05T17:48:28.742Z,0.79
2023-03-05T17:52:30.406Z,0.61
2023-03-05T17:56:32.872Z,0.47
2023-03-05T18:00:35.522Z,0.72
2023-03-05T18:04:37.354Z,0.11
2023-03-05T18:08:39.321Z,0.20
2023-03-05T18:12:41.143Z,0.11
2023-03-05T18:16:42.696Z,0.03
2023-03-05T18:20:44.641Z,0.44
2023-03-05T18:24:46.073Z,0.47
2023-03-05T18:28:50.352Z,0.40
2023-03-05T18:32:51.836Z,0.15
2023-03-05T18:36:54.277Z,0.52
2023-03-05T18:40:57.420Z,0.22
2023-03-05T18:45:00.751Z,0.17
2023-03-05T18:49:02.306Z,0.20
2023-03-05T18:53:03.834Z,0.44
2023-03-05T18:57:05.407Z,0.14
2023-03-05T19:01:07.151Z,0.40
2023-03-05T19:05:10.333Z,0.35
2023-03-05T19:09:20.967Z,0.47
2023-03-05T19:13:49.002Z,0.39
2023-03-05T19:17:50.751Z,-0.14
2023-03-05T19:21:54.297Z,0.26
2023-03-05T19:25:56.214Z,0.22
2023-03-05T19:29:58.099Z,0.26
2023-03-05T19:33:59.728Z,0.05
2023-03-05T19:38:01.234Z,0.36
2023-03-05T19:42:03.539Z,0.50
2023-03-05T19:46:07.572Z,0.29
2023-03-05T19:50:09.920Z,-0.01
2023-03-05T19:54:12.338Z,0.16
2023-03-05T19:58:13.822Z,0.10
2023-03-05T20:02:19.347Z,0.01
2023-03-05T20:06:22.400Z,-0.20
2023-03-05T20:10:23.977Z,0.02
2023-03-05T20:14:25.485Z,-0.15
2023-03-05T20:18:27.563Z,0.06
2023-03-05T20:22:29.034Z,0.16
2023-03-05T20:26:32.943Z,-0.29
2023-03-05T20:30:34.432Z,-0.17
2023-03-05T20:34:36.002Z,-0.22
2023-03-05T20:38:37.713Z,-0.07
2023-03-05T20:42:39.201Z,-0.22
2023-03-05T20:46:49.579Z,-0.05
2023-03-05T20:50:51.855Z,0.19
2023-03-05T20:54:53.410Z,0.24
2023-03-05T20:58:58.106Z,0.26
2023-03-05T21:02:59.750Z,0.23
2023-03-05T21:07:01.246Z,0.19
2023-03-05T21:11:08.078Z,-0.06
2023-03-05T21:15:11.731Z,0.05
2023-03-05T21:19:13.386Z,-0.26
2023-03-05T21:23:14.887Z,0.13
2023-03-05T21:27:16.424Z,0.12
2023-03-05T21:31:21.463Z,0.06
2023-03-05T21:35:23.077Z,0.38
2023-03-05T21:39:24.603Z,0.55
2023-03-05T21:43:26.906Z,0.53
2023-03-05T21:47:28.382Z,0.25
2023-03-05T21:51:38.451Z,-0.09
2023-03-05T21:55:53.994Z,-0.31
2023-03-05T21:59:56.060Z,-0.20
2023-03-05T22:03:57.577Z,0.01
2023-03-05T22:07:59.139Z,-0.09
2023-03-05T22:12:00.956Z,0.09
2023-03-05T22:16:02.420Z,0.06
2023-03-05T22:20:04.763Z,0.12
2023-03-05T22:24:06.427Z,0.03
2023-03-05T22:28:09.285Z,-0.11
2023-03-05T22:32:10.826Z,-0.19
2023-03-05T22:36:12.770Z,0.02
2023-03-05T22:40:18.112Z,-0.38
2023-03-05T22:44:19.568Z,0.00
2023-03-05T22:48:21.258Z,-0.32
2023-03-05T22:52:22.718Z,0.08
2023-03-05T22:56:24.255Z,0.00
2023-03-05T23:00:26.747Z,0.25
2023-03-05T23:04:47.522Z,0.18
2023-03-05T23:08:49.040Z,0.17
2023-03-05T23:12:52.796Z,-0.14
2023-03-05T23:16:54.384Z,0.07
2023-03-05T23:20:56.162Z,0.15
2023-03-05T23:24:57.674Z,0.18
2023-03-05T23:28:59.165Z,-0.02
2023-03-05T23:33:06.868Z,0.07
2023-03-05T23:37:08.392Z,0.10
2023-03-05T23:41:09.928Z,0.02
2023-03-05T23:45:14.034Z,0.16
2023-03-05T23:49:15.549Z,0.02
2023-03-05T23:53:23.520Z,0.07
2023-03-05T23:57:25.229Z,0.08
